Impacts TAF Board INFO
FOR SITUATIONAL AWARENESS. NOT TO BE USED FOR FLIGHT PLANNING PURPOSES.
IDs:

KGWO - Greenwood/Leflore Ar, MS, US

Issued at 0520 UTC 16 Aug 2018
Updated at 1026 UTC 16 Aug 2018
Potential Impact None Slight Moderate High
Time0953Z 16/11Z 16/12Z 16/13Z 16/14Z 16/15Z 16/16Z 16/17Z 16/18Z 16/19Z 16/20Z 16/21Z 16/22Z 16/23Z>>
Type OBS PRVL PRVL PRVL PRVL PRVL PRVL PRVL PRVL PRVL PRVL PRVL PRVL PRVL
VIS 10 >6 >6 >6 >6 >6 >6 >6 >6 >6 >6 >6 >6 >6
CIG -- 250 250 250 250 250 250 250 70 70 70 70 70 130
Cover CLR BKN BKN BKN BKN BKN BKN BKN BKN BKN BKN BKN BKN BKN
FltCat VFR VFR VFR VFR VFR VFR VFR VFR VFR VFR VFR VFR VFR VFR
WX -- -- -- -- -- -- -- -- VCTS VCTS VCTS VCTS VCTS --
WDir 180 170 170 170 170 170 170 170 210 210 210 210 210 190
WSpd 5 5 5 5 5 5 5 5 7 7 7 7 7 4
WGst -- -- -- -- -- -- -- -- -- -- -- -- -- --

Raw TAF
KGWO 160520Z 1606/1706 17005KT P6SM FEW050 SCT150 BKN250
  FM161800 21007KT P6SM VCTS SCT050 BKN070CB BKN250
  FM162300 19004KT P6SM SCT060 BKN130 BKN250


Raw METAR
KGWO 160953Z AUTO 18005KT 10SM CLR 25/22 A3002 RMK AO2 SLP163 T02500222
KGWO 160853Z AUTO 18004KT 10SM CLR 26/22 A3000 RMK AO2 SLP156 T02560222 55000
KGWO 160753Z AUTO 20005KT 10SM CLR 27/22 A2999 RMK AO2 SLP152 T02670222

METAR Board
Radar Display
Forecast Discussion

FOR SITUATIONAL AWARENESS. NOT TO BE USED FOR FLIGHT PLANNING PURPOSES.